Time;durP1;ratioP1;P1;durP2;ratioP2;P2;SDS_P1;SDS_P2;PMS_P1;PMS_P2;Temp;Humidity;BMP_temperature;BMP_pressure;BME280_temperature;BME280_humidity;BME280_pressure;Samples;Min_cycle;Max_cycle;Signal;HPM_P1;HPM_P2
2022/06/23 00:01:32;;;;;;;2.35;1.45;;;20.90;79.70;;;21.48;54.47;100503.75;5225926;28;20060;-79
2022/06/23 00:04:04;;;;;;;1.35;1.25;;;20.90;79.70;;;21.47;54.81;100513.47;5209760;28;20499;-79
2022/06/23 00:06:46;;;;;;;2.72;1.42;;;20.90;80.10;;;21.46;54.60;100505.56;5209229;28;20039;-80
2022/06/23 00:09:38;;;;;;;1.60;1.50;;;20.90;80.20;;;21.43;54.21;100516.19;5218141;28;20045;-79
2022/06/23 00:12:23;;;;;;;1.60;1.50;;;20.90;79.80;;;21.43;54.23;100508.22;5188405;28;20053;-80
2022/06/23 00:15:17;;;;;;;1.90;1.80;;;20.90;79.80;;;21.43;54.36;100508.22;5187474;28;20050;-78
2022/06/23 00:18:00;;;;;;;1.90;1.38;;;20.90;80.10;;;21.43;54.56;100516.19;5187572;28;20054;-79
2022/06/23 00:20:39;;;;;;;1.90;1.65;;;20.90;80.50;;;21.43;55.13;100500.28;5187467;28;20054;-78
2022/06/23 00:23:16;;;;;;;2.15;1.52;;;20.90;81.10;;;21.43;55.64;100508.22;5187412;28;20049;-78
2022/06/23 00:25:53;;;;;;;3.47;1.50;;;20.90;81.70;;;21.42;56.09;100507.34;5188442;28;20078;-80
2022/06/23 00:28:28;;;;;;;2.00;1.40;;;20.80;82.30;;;21.42;56.66;100501.19;5189307;28;20499;-80
2022/06/23 00:31:03;;;;;;;2.35;1.17;;;20.80;83.00;;;21.39;56.91;100508.28;5187907;28;20049;-79
2022/06/23 00:33:41;;;;;;;1.80;1.55;;;20.80;83.60;;;21.38;55.95;100497.69;5187270;28;20090;-78
2022/06/23 00:36:22;;;;;;;1.92;1.73;;;20.80;82.70;;;21.40;55.37;100507.38;5186905;28;20046;-79
2022/06/23 00:38:56;;;;;;;3.22;1.50;;;20.80;82.20;;;21.43;54.72;100516.19;5187818;28;20068;-79
2022/06/23 00:41:33;;;;;;;2.28;1.70;;;20.80;81.60;;;21.43;54.41;100500.28;5187363;28;20574;-79
2022/06/23 00:44:09;;;;;;;1.70;1.60;;;20.90;81.30;;;21.43;54.20;100500.28;5188938;28;20609;-80
2022/06/23 00:46:48;;;;;;;1.63;1.52;;;20.90;81.00;;;21.43;54.42;100489.66;5188213;28;20057;-79
2022/06/23 00:49:28;;;;;;;3.10;1.70;;;20.90;81.40;;;21.43;54.12;100500.28;5188310;28;20049;-80
2022/06/23 00:52:11;;;;;;;2.38;1.70;;;20.90;81.00;;;21.44;53.96;100491.41;5187952;28;20073;-79
2022/06/23 00:54:53;;;;;;;3.00;2.00;;;20.90;80.80;;;21.43;54.16;100490.53;5186657;28;20046;-78
2022/06/23 00:57:32;;;;;;;1.92;1.73;;;20.90;81.10;;;21.43;53.73;100479.06;5186318;28;20112;-80
2022/06/23 01:00:13;;;;;;;1.60;1.50;;;20.90;80.70;;;21.45;53.66;100487.88;5186436;28;20061;-79
2022/06/23 01:02:50;;;;;;;2.05;1.70;;;20.90;80.60;;;21.44;54.03;100481.69;5186723;28;20061;-80
2022/06/23 01:05:25;;;;;;;1.85;1.42;;;20.90;80.90;;;21.44;53.83;100483.47;5202618;28;20073;-79
2022/06/23 01:08:03;;;;;;;2.55;1.63;;;20.90;80.80;;;21.44;54.71;100487.00;5187746;28;20045;-79
2022/06/23 01:10:52;;;;;;;1.65;1.55;;;20.90;81.80;;;21.38;54.71;100487.94;5187614;28;20053;-79
2022/06/23 01:13:32;;;;;;;2.60;1.60;;;20.90;81.90;;;21.35;55.45;100488.00;5187924;28;20042;-78
2022/06/23 01:16:11;;;;;;;1.55;1.30;;;20.80;82.70;;;21.32;56.31;100481.84;5187437;28;20038;-80
2022/06/23 01:18:51;;;;;;;1.40;1.30;;;20.80;83.80;;;21.28;57.17;100483.69;5185911;28;20424;-79
2022/06/23 01:21:30;;;;;;;3.03;1.67;;;20.70;85.00;;;21.22;57.77;100481.09;5186026;28;20137;-78
2022/06/23 01:24:21;;;;;;;1.40;1.25;;;20.70;85.80;;;21.16;58.40;100481.19;5187562;28;20385;-78
2022/06/23 01:27:12;;;;;;;1.60;1.50;;;20.60;86.70;;;21.10;59.04;100482.13;5186176;28;20397;-80
2022/06/23 01:29:49;;;;;;;1.38;1.27;;;20.60;87.50;;;21.04;59.40;100491.94;5186081;28;20073;-78
2022/06/23 01:32:26;;;;;;;2.15;1.50;;;20.50;88.40;;;20.97;59.90;100491.13;5186338;28;20057;-79
2022/06/23 01:35:07;;;;;;;1.90;1.48;;;20.40;89.10;;;20.92;59.58;100486.78;5186490;28;20483;-79
2022/06/23 01:37:44;;;;;;;1.52;1.40;;;20.40;89.40;;;20.88;59.54;100488.63;5186053;28;20053;-80
2022/06/23 01:40:21;;;;;;;1.65;1.40;;;20.30;89.30;;;20.86;59.81;100491.28;5187969;28;20037;-79
2022/06/23 01:43:01;;;;;;;1.80;1.50;;;20.30;90.00;;;20.81;59.38;100495.75;5187862;28;20506;-79
2022/06/23 01:45:39;;;;;;;2.38;1.65;;;20.30;89.80;;;20.77;58.66;100499.31;5188066;28;20074;-79
2022/06/23 01:48:51;;;;;;;1.92;1.67;;;20.30;89.10;;;20.74;57.89;100504.69;5188053;28;20046;-79
2022/06/23 01:51:23;;;;;;;1.88;1.50;;;20.20;88.30;;;20.73;57.83;100513.50;5186659;28;20050;-80
2022/06/23 01:54:08;;;;;;;2.42;1.77;;;20.20;88.40;;;20.71;58.71;100520.59;5187146;28;20046;-79
2022/06/23 01:56:52;;;;;;;1.70;1.58;;;20.20;89.30;;;20.68;59.55;100523.28;5188208;28;20065;-79
2022/06/23 01:59:52;;;;;;;1.60;1.50;;;20.10;90.30;;;20.64;59.04;100508.31;5187910;28;20066;-80
2022/06/23 02:02:51;;;;;;;2.85;2.10;;;20.10;90.10;;;20.57;58.56;100506.63;5187052;28;20126;-80
2022/06/23 02:05:37;;;;;;;3.47;2.10;;;20.10;89.70;;;20.56;58.35;100510.16;5187439;28;20046;-80
2022/06/23 02:08:34;;;;;;;1.90;1.67;;;20.00;89.50;;;20.56;58.11;100505.75;5188969;28;20042;-81
2022/06/23 02:11:15;;;;;;;4.32;2.00;;;20.00;89.30;;;20.58;57.55;100511.91;5186936;28;20056;-80
2022/06/23 02:13:50;;;;;;;;;;;20.10;88.80;;;20.56;56.95;100504.88;5186655;28;20545;-80
2022/06/23 02:16:29;;;;;;;2.63;1.70;;;20.10;88.00;;;20.58;57.05;100503.06;5186759;28;20284;-80
2022/06/23 02:19:14;;;;;;;2.10;1.90;;;20.10;88.30;;;20.58;57.08;100509.25;5186973;28;20073;-80
2022/06/23 02:21:52;;;;;;;2.95;2.05;;;20.10;88.30;;;20.57;56.95;100504.84;5186589;28;20504;-80
2022/06/23 02:24:31;;;;;;;3.30;1.90;;;20.10;88.20;;;20.57;56.99;100502.19;5186819;28;20104;-79
2022/06/23 02:27:13;;;;;;;1.73;1.55;;;20.10;88.10;;;20.56;57.24;100505.75;5186460;28;20054;-80
2022/06/23 02:29:54;;;;;;;1.90;1.70;;;20.10;88.50;;;20.56;57.20;100502.22;5185776;28;20042;-80
2022/06/23 02:32:50;;;;;;;2.30;1.85;;;20.10;88.50;;;20.54;56.92;100501.38;5185941;28;20053;-79
2022/06/23 02:35:31;;;;;;;3.20;1.73;;;20.00;88.20;;;20.53;56.83;100505.75;5184942;28;20054;-79
2022/06/23 02:38:09;;;;;;;1.70;1.60;;;20.00;88.20;;;20.52;56.75;100498.72;5185436;28;20112;-79
2022/06/23 02:40:46;;;;;;;2.05;1.67;;;20.00;88.30;;;20.53;56.71;100510.19;5186759;28;20097;-79
2022/06/23 02:43:26;;;;;;;2.65;1.80;;;20.00;88.20;;;20.51;56.29;100507.56;5185671;28;20053;-79
2022/06/23 02:46:29;;;;;;;2.65;1.70;;;20.00;87.60;;;20.54;56.94;100514.63;5186153;28;20050;-79
2022/06/23 02:49:33;;;;;;;1.60;1.50;;;20.00;88.40;;;20.52;57.12;100524.31;5186319;28;20046;-78
2022/06/23 02:52:59;;;;;;;2.28;1.60;;;20.00;88.60;;;20.49;57.23;100519.06;5185062;28;20045;-79
2022/06/23 02:55:52;;;;;;;2.67;1.50;;;20.00;88.90;;;20.47;57.07;100520.84;5199600;28;20500;-79
2022/06/23 02:58:30;;;;;;;1.65;1.50;;;20.00;88.90;;;20.46;57.01;100524.38;5184982;28;20049;-77
2022/06/23 03:01:10;;;;;;;1.38;1.23;;;19.90;89.00;;;20.44;55.96;100519.06;5185140;28;20050;-80
2022/06/23 03:03:49;;;;;;;1.60;1.40;;;19.90;88.10;;;20.44;56.57;100520.84;5185744;28;20489;-77
2022/06/23 03:06:28;;;;;;;1.60;1.50;;;19.90;88.50;;;20.44;56.46;100526.13;5201109;28;20049;-78
2022/06/23 03:09:09;;;;;;;2.08;1.70;;;19.90;88.40;;;20.40;56.81;100519.97;5184733;28;20146;-78
2022/06/23 03:11:54;;;;;;;1.77;1.60;;;19.90;88.70;;;20.38;57.16;100527.06;5184190;28;20069;-79
2022/06/23 03:14:40;;;;;;;1.48;1.38;;;19.90;89.30;;;20.36;56.59;100523.56;5184812;28;20054;-79
2022/06/23 03:17:24;;;;;;;1.48;1.38;;;19.90;88.50;;;20.35;56.43;100539.47;5186038;28;20049;-79
2022/06/23 03:20:04;;;;;;;1.90;1.70;;;19.90;88.40;;;20.31;57.06;100547.44;5186163;28;20100;-78
2022/06/23 03:22:44;;;;;;;1.70;1.60;;;19.80;89.20;;;20.28;57.89;100544.81;5184645;28;20054;-80
2022/06/23 03:25:23;;;;;;;1.58;1.40;;;19.80;90.00;;;20.24;57.59;100545.72;5184275;28;20420;-79
2022/06/23 03:28:02;;;;;;;2.10;1.40;;;19.70;89.80;;;20.23;57.12;100549.28;5186182;28;20052;-79
2022/06/23 03:30:41;;;;;;;2.63;1.70;;;19.70;89.40;;;20.24;56.76;100542.22;5190144;28;20049;-79
2022/06/23 03:33:22;;;;;;;2.72;1.92;;;19.70;88.90;;;20.22;56.48;100542.22;5190118;28;20054;-79
2022/06/23 03:35:58;;;;;;;2.53;1.80;;;19.70;88.70;;;20.24;56.47;100555.44;5188208;28;20046;-78
2022/06/23 03:41:37;;;;;;;2.92;2.00;;;19.80;88.70;;;20.25;56.77;100558.06;5188617;28;20050;-78
2022/06/23 03:44:18;;;;;;;2.72;1.70;;;19.80;89.00;;;20.23;56.50;100559.84;5188152;28;20782;-79
2022/06/23 03:46:57;;;;;;;3.42;1.90;;;19.80;88.80;;;20.21;56.45;100563.38;5188563;28;20707;-79
2022/06/23 03:49:45;;;;;;;2.17;1.73;;;19.70;88.60;;;20.21;56.34;100556.34;5189481;28;20097;-79
2022/06/23 03:52:28;;;;;;;3.45;1.98;;;19.80;88.40;;;20.22;56.16;100546.66;5189719;28;20044;-78
2022/06/23 03:55:08;;;;;;;2.92;2.10;;;19.80;88.20;;;20.24;56.38;100548.38;5189819;28;20100;-79
2022/06/23 03:57:53;;;;;;;2.55;1.70;;;19.80;88.60;;;20.27;56.38;100547.47;5188680;28;20626;-79
2022/06/23 04:00:34;;;;;;;2.47;1.80;;;19.80;88.80;;;20.29;56.38;100543.06;5188293;28;20077;-79
2022/06/23 04:03:20;;;;;;;3.38;1.83;;;19.80;88.50;;;20.29;56.51;100533.34;5189963;28;20046;-80
2022/06/23 04:06:23;;;;;;;1.98;1.70;;;19.80;88.70;;;20.30;56.39;100532.44;5187793;28;20048;-78
2022/06/23 04:09:07;;;;;;;2.53;1.80;;;19.90;88.80;;;20.30;56.54;100543.03;5189699;28;20042;-78
2022/06/23 04:11:49;;;;;;;1.83;1.50;;;19.80;88.80;;;20.31;56.26;100542.13;5188935;28;20500;-79
2022/06/23 04:14:46;;;;;;;2.28;2.03;;;19.80;88.50;;;20.27;56.13;100540.38;5189238;28;20434;-80
2022/06/23 04:17:26;;;;;;;3.08;1.95;;;19.80;88.20;;;20.28;56.13;100542.19;5187465;28;20121;-80
2022/06/23 04:20:04;;;;;;;2.47;1.75;;;19.80;88.20;;;20.28;56.15;100544.81;5188682;28;20042;-79
2022/06/23 04:22:42;;;;;;;2.55;1.85;;;19.80;88.20;;;20.29;56.14;100543.06;5188521;28;20119;-79
2022/06/23 04:25:19;;;;;;;2.05;1.80;;;19.90;88.20;;;20.35;56.06;100531.53;5188330;28;20404;-79
2022/06/23 04:27:55;;;;;;;4.40;1.70;;;19.90;88.20;;;20.37;56.16;100540.34;5187236;28;20049;-79
2022/06/23 04:30:35;;;;;;;2.25;1.95;;;19.90;88.20;;;20.39;55.99;100539.41;5188299;28;20053;-79
2022/06/23 04:33:16;;;;;;;2.00;1.80;;;19.90;88.10;;;20.43;56.02;100551.75;5187398;28;20070;-78
2022/06/23 04:35:52;;;;;;;2.83;1.58;;;20.00;88.10;;;20.49;56.01;100545.53;5188321;28;20042;-79
2022/06/23 04:38:32;;;;;;;2.53;1.70;;;20.00;88.10;;;20.55;55.90;100556.06;5187237;28;20054;-79
2022/06/23 04:41:13;;;;;;;2.15;1.85;;;20.10;88.10;;;20.64;56.61;100555.09;5187564;28;20096;-80
2022/06/23 04:43:50;;;;;;;2.80;1.98;;;20.20;88.90;;;20.66;56.17;100554.19;5203765;28;20060;-79
2022/06/23 04:46:33;;;;;;;3.63;1.83;;;20.20;88.40;;;20.72;56.05;100550.59;5188057;28;20057;-79
2022/06/23 04:49:16;;;;;;;2.97;1.80;;;20.30;88.50;;;20.91;56.08;100554.78;5188730;28;20048;-79
2022/06/23 04:51:54;;;;;;;2.47;1.88;;;20.40;89.20;;;21.26;55.60;100561.47;5309741;22;20055;-69
2022/06/23 04:54:30;;;;;;;3.65;2.10;;;20.70;88.70;;;21.61;54.18;100564.53;5235903;28;20534;-70
2022/06/23 04:57:18;;;;;;;3.97;2.22;;;21.00;87.30;;;22.13;53.32;100562.91;5213078;28;20052;-69
2022/06/23 04:59:53;;;;;;;4.22;2.33;;;21.40;86.60;;;22.66;51.88;100563.75;5206517;28;20053;-71
2022/06/23 05:02:32;;;;;;;2.70;1.90;;;21.90;84.90;;;23.25;49.96;100575.03;5186787;28;20128;-70
2022/06/23 05:05:09;;;;;;;4.22;1.98;;;22.40;83.40;;;23.68;48.44;100579.47;5186189;28;20050;-71
2022/06/23 05:07:46;;;;;;;2.72;2.00;;;22.80;80.70;;;23.95;47.51;100577.97;5189070;28;20541;-70
2022/06/23 05:10:24;;;;;;;3.70;1.98;;;23.10;79.00;;;24.20;47.44;100581.78;5214838;28;20049;-70
2022/06/23 05:13:00;;;;;;;2.50;2.00;;;23.40;78.70;;;24.25;46.45;100586.97;5186346;28;20125;-69
2022/06/23 05:15:36;;;;;;;2.85;2.00;;;23.60;77.30;;;24.36;46.39;100584.97;5186147;28;20103;-70
2022/06/23 05:18:16;;;;;;;3.17;1.92;;;23.70;76.70;;;24.30;46.24;100585.94;5185950;28;20050;-70
2022/06/23 05:20:54;;;;;;;3.60;2.00;;;23.70;75.80;;;24.76;45.64;100584.78;5186163;28;20123;-70
2022/06/23 05:23:32;;;;;;;4.90;2.40;;;24.00;75.60;;;24.98;45.24;100579.75;5186048;28;20506;-69
2022/06/23 05:26:07;;;;;;;3.13;2.33;;;24.30;74.50;;;25.19;44.01;100585.44;5185680;28;20038;-70
2022/06/23 05:28:43;;;;;;;3.55;1.92;;;24.50;73.60;;;25.07;44.16;100576.84;5185734;28;20053;-71
2022/06/23 05:31:23;;;;;;;3.95;2.05;;;24.50;72.80;;;25.30;44.03;100575.31;5185837;28;20054;-69
2022/06/23 05:34:05;;;;;;;4.20;2.10;;;24.60;72.70;;;25.73;44.02;100577.59;5185937;28;20528;-70
2022/06/23 05:36:47;;;;;;;2.85;2.10;;;24.90;72.80;;;25.98;43.00;100575.91;5185573;28;20049;-69
2022/06/23 05:39:25;;;;;;;4.32;2.20;;;25.10;71.40;;;26.45;42.36;100585.97;5185663;28;20116;-69
2022/06/23 05:42:03;;;;;;;3.08;2.03;;;25.40;71.00;;;26.93;41.80;100582.50;5185642;28;20046;-70
2022/06/23 05:44:48;;;;;;;4.07;2.00;;;25.80;70.40;;;27.20;40.63;100586.00;5185435;28;20045;-70
2022/06/23 05:47:22;;;;;;;4.20;2.13;;;26.20;68.60;;;27.08;40.70;100592.69;5185583;28;20053;-71
2022/06/23 05:50:03;;;;;;;3.80;1.90;;;26.20;68.00;;;26.86;41.49;100591.66;5185475;28;20125;-68
2022/06/23 05:52:44;;;;;;;5.55;2.20;;;26.10;68.30;;;26.72;41.67;100584.13;5185011;28;20100;-69
2022/06/23 05:55:20;;;;;;;;;;;26.00;68.30;;;26.90;41.37;100585.28;5185878;28;20117;-70
2022/06/23 05:58:00;;;;;;;5.13;1.92;;;26.10;68.20;;;26.98;41.16;100596.56;5184225;28;19932;-70
2022/06/23 06:00:42;;;;;;;3.67;2.10;;;26.20;67.90;;;26.94;41.38;100592.28;5185204;28;20052;-69
2022/06/23 06:03:21;;;;;;;3.40;2.00;;;26.20;68.00;;;27.01;41.33;100591.13;5185651;28;20145;-69
2022/06/23 06:05:57;;;;;;;4.18;2.15;;;26.20;67.80;;;27.29;41.18;100589.19;5184886;28;20049;-69
2022/06/23 06:09:35;;;;;;;4.85;2.20;;;26.40;67.90;;;27.67;40.54;100592.22;5195727;28;20064;-70
2022/06/23 06:11:29;;;;;;;3.70;2.03;;;26.70;67.30;;;27.88;40.54;100589.66;5216388;28;20065;-69
2022/06/23 06:14:02;;;;;;;4.47;2.08;;;26.90;67.10;;;27.84;40.44;100589.81;5226187;28;20072;-69
2022/06/23 06:16:34;;;;;;;4.28;1.90;;;27.00;66.80;;;27.97;40.83;100591.97;5224575;28;20048;-69
2022/06/23 06:19:07;;;;;;;3.88;2.20;;;27.10;67.30;;;28.43;39.85;100588.31;5226169;28;20120;-69
2022/06/23 06:21:41;;;;;;;3.42;2.20;;;27.40;66.40;;;28.84;39.13;100582.97;5226005;28;20044;-69
2022/06/23 06:24:22;;;;;;;5.32;2.40;;;27.70;65.70;;;29.00;38.56;100589.41;5212915;28;20041;-69
2022/06/23 06:26:56;;;;;;;3.08;2.10;;;27.90;65.00;;;29.20;38.92;100581.31;5194982;28;20469;-69
2022/06/23 06:29:36;;;;;;;4.00;2.30;;;28.10;65.30;;;29.62;38.23;100582.13;5192737;28;20394;-69
2022/06/23 06:32:25;;;;;;;3.22;2.10;;;28.50;64.70;;;29.40;38.65;100584.91;5193586;28;20160;-69
2022/06/23 06:35:08;;;;;;;3.63;2.13;;;28.40;64.50;;;29.59;38.72;100593.00;5194688;28;20046;-69
2022/06/23 06:37:48;;;;;;;4.05;2.03;;;28.50;64.60;;;30.03;38.00;100585.50;5200426;28;20038;-68
2022/06/23 06:40:21;;;;;;;4.18;2.22;;;28.80;64.20;;;30.24;37.49;100583.56;5193929;28;20069;-73
2022/06/23 06:43:00;;;;;;;4.43;2.20;;;29.10;63.30;;;30.02;37.56;100574.81;5192131;28;20108;-71
2022/06/23 06:45:36;;;;;;;4.05;2.33;;;29.00;62.90;;;29.56;38.44;100582.41;5195800;28;20497;-72
2022/06/23 06:48:15;;;;;;;3.63;1.98;;;28.70;63.40;;;29.01;39.07;100580.41;5203277;28;20103;-73
2022/06/23 06:50:52;;;;;;;4.78;2.30;;;28.40;64.00;;;28.46;40.49;100576.56;5205170;28;20049;-71
2022/06/23 06:53:34;;;;;;;3.05;2.00;;;27.90;65.10;;;28.12;41.53;100569.91;5202696;28;20041;-73
2022/06/23 06:56:13;;;;;;;3.28;2.10;;;27.60;66.40;;;28.01;42.27;100577.53;5184602;28;20490;-64
2022/06/23 06:58:55;;;;;;;3.22;1.98;;;27.40;67.50;;;27.88;42.59;100571.78;5191794;28;20049;-63
2022/06/23 07:01:29;;;;;;;5.32;2.53;;;27.20;67.70;;;27.66;43.42;100585.13;5194460;28;20042;-64
2022/06/23 07:04:01;;;;;;;;;;;27.00;68.60;;;27.47;44.06;100584.09;5197172;28;20445;-71
2022/06/23 07:06:40;;;;;;;5.10;2.42;;;26.90;69.30;;;27.43;44.54;100585.13;5192662;28;19925;-71
2022/06/23 07:09:27;;;;;;;4.03;2.58;;;26.80;70.00;;;27.51;45.06;100585.72;5194099;28;20045;-71
2022/06/23 07:12:06;;;;;;;4.28;2.28;;;26.70;71.00;;;27.68;45.24;100583.28;5188538;28;20057;-72
2022/06/23 07:14:46;;;;;;;3.67;2.28;;;26.80;71.40;;;27.73;45.19;100585.78;5188536;28;20057;-72
2022/06/23 07:17:30;;;;;;;4.95;2.10;;;26.80;71.40;;;27.84;45.41;100595.16;5188500;28;20045;-72
2022/06/23 07:20:10;;;;;;;4.78;2.75;;;26.90;72.00;;;27.90;44.99;100583.28;5188471;28;20042;-70
2022/06/23 07:22:45;;;;;;;;;;;27.00;71.70;;;27.78;45.20;100587.38;5188883;28;20052;-71
2022/06/23 07:25:23;;;;;;;4.57;2.30;;;27.00;71.60;;;27.84;45.16;100584.44;5186582;28;19935;-70
2022/06/23 07:28:00;;;;;;;4.20;2.60;;;27.00;71.80;;;28.01;44.67;100585.56;5188523;28;20066;-71
2022/06/23 07:30:39;;;;;;;5.97;2.72;;;27.10;72.00;;;28.08;44.95;100587.03;5188311;28;20048;-70
2022/06/23 07:33:16;;;;;;;3.85;2.58;;;27.10;71.50;;;28.20;45.10;100575.81;5202694;28;20504;-71
2022/06/23 07:35:55;;;;;;;4.68;2.25;;;27.30;71.70;;;28.37;45.00;100570.66;5208062;28;20048;-72
2022/06/23 07:38:35;;;;;;;4.93;2.63;;;27.40;72.10;;;28.47;44.88;100564.91;5214940;28;20129;-73
2022/06/23 07:41:17;;;;;;;5.65;2.80;;;27.50;72.10;;;28.62;44.97;100566.91;5213760;28;20049;-71
2022/06/23 07:43:57;;;;;;;4.63;2.78;;;27.60;72.30;;;28.90;44.92;100561.22;5227879;28;20545;-71
2022/06/23 07:46:31;;;;;;;5.55;2.63;;;27.80;72.60;;;29.13;44.76;100554.84;5217603;28;20045;-71
2022/06/23 07:49:03;;;;;;;6.93;2.80;;;27.90;72.10;;;29.31;44.24;100566.53;5219235;28;20048;-73
2022/06/23 07:51:37;;;;;;;4.20;2.70;;;28.10;71.90;;;29.29;43.60;100563.94;5218807;28;20045;-71
2022/06/23 07:54:16;;;;;;;4.57;2.65;;;28.20;71.20;;;29.35;44.12;100563.66;5220735;28;20540;-74
2022/06/23 07:56:52;;;;;;;3.72;2.72;;;28.30;71.30;;;29.50;43.88;100569.25;5214262;28;20048;-71
2022/06/23 07:59:47;;;;;;;4.80;2.60;;;28.40;71.40;;;29.82;43.95;100571.28;5219527;28;20051;-70
2022/06/23 08:02:27;;;;;;;5.15;2.80;;;28.60;71.60;;;30.13;42.55;100561.75;5216582;28;20087;-70
2022/06/23 08:05:05;;;;;;;5.88;2.85;;;28.80;71.00;;;30.24;40.79;100567.44;5209133;28;20045;-71
2022/06/23 08:07:38;;;;;;;4.15;2.63;;;28.90;68.50;;;30.46;41.61;100560.03;5226892;28;20565;-72
2022/06/23 08:10:16;;;;;;;4.75;2.80;;;29.00;69.10;;;30.83;40.71;100560.81;5228552;28;20128;-70
2022/06/23 08:12:55;;;;;;;7.78;3.40;;;29.20;68.90;;;31.26;40.23;100553.19;5221608;28;20072;-73
2022/06/23 08:18:32;;;;;;;5.18;2.72;;;29.80;67.50;;;32.50;37.92;100548.78;5221801;28;20042;-73
2022/06/23 08:21:17;;;;;;;5.80;2.90;;;30.30;67.10;;;33.10;37.03;100552.25;5205827;28;20048;-72
2022/06/23 08:23:55;;;;;;;2.80;2.20;;;30.60;66.40;;;33.79;35.93;100555.09;5216234;28;20046;-72
2022/06/23 08:26:28;;;;;;;5.13;2.78;;;31.00;65.70;;;34.49;34.70;100544.97;5207242;28;20044;-73
2022/06/23 08:29:04;;;;;;;4.00;2.50;;;31.40;64.30;;;35.08;33.84;100556.19;5209082;28;20045;-72
2022/06/23 08:31:38;;;;;;;4.88;2.70;;;31.80;63.60;;;35.15;33.06;100554.81;5218043;28;20453;-73
2022/06/23 08:34:11;;;;;;;5.78;2.70;;;31.90;62.00;;;35.79;32.20;100560.09;5212614;28;20045;-72
2022/06/23 08:36:47;;;;;;;5.40;2.60;;;32.20;62.10;;;36.60;30.94;100549.41;5214931;28;20050;-73
2022/06/23 08:39:26;;;;;;;5.10;2.65;;;32.60;60.70;;;37.24;29.53;100546.19;5207625;28;20549;-71
2022/06/23 08:42:07;;;;;;;4.50;2.53;;;33.10;59.40;;;37.81;29.13;100547.00;5219706;28;20131;-72
2022/06/23 08:44:51;;;;;;;4.85;2.22;;;33.70;58.60;;;38.58;27.99;100536.78;5227780;28;20627;-71
2022/06/23 08:47:39;;;;;;;5.00;2.33;;;34.40;57.30;;;39.37;27.25;100550.72;5228140;28;20524;-75
2022/06/23 08:50:19;;;;;;;11.68;3.00;;;35.20;56.30;;;39.53;26.13;100542.91;5225900;28;20049;-73
2022/06/23 08:52:56;;;;;;;;;;;35.60;54.20;;;39.43;26.49;100547.47;5207492;28;20508;-66
2022/06/23 08:55:35;;;;;;;4.45;2.42;;;35.70;54.00;;;39.86;25.73;100549.03;5207328;28;20008;-72
2022/06/23 08:58:16;;;;;;;6.55;2.72;;;36.10;53.30;;;39.84;25.80;100551.03;5207047;28;20128;-72
2022/06/23 09:00:58;;;;;;;3.70;2.55;;;36.20;53.10;;;40.00;25.33;100540.44;5206990;28;20049;-73
2022/06/23 09:03:50;;;;;;;5.70;2.53;;;36.40;52.30;;;40.33;25.22;100546.50;5207040;28;20498;-73
2022/06/23 09:06:34;;;;;;;2.90;2.53;;;36.60;52.00;;;40.95;24.27;100542.38;5206823;28;20041;-74
2022/06/23 09:09:25;;;;;;;5.22;2.45;;;37.00;51.30;;;41.29;23.80;100537.22;5206857;28;20041;-72
2022/06/23 09:12:11;;;;;;;6.60;2.30;;;37.30;50.90;;;41.42;23.15;100551.44;5222031;28;20045;-74
2022/06/23 09:15:32;;;;;;;5.20;2.70;;;37.50;49.50;;;40.38;24.22;100549.66;5206587;28;20056;-72
2022/06/23 09:19:08;;;;;;;4.10;2.63;;;37.00;49.60;;;40.51;24.09;100544.78;5203861;28;20482;-73
2022/06/23 09:22:23;;;;;;;6.57;2.53;;;36.90;50.00;;;40.48;24.09;100544.19;5215057;28;20052;-72
2022/06/23 09:25:06;;;;;;;5.22;2.55;;;37.00;49.60;;;39.92;24.30;100543.00;5167168;28;20129;-73
2022/06/23 09:28:13;;;;;;;2.85;2.22;;;36.70;49.50;;;39.28;25.33;100537.94;5185712;28;20487;-72
2022/06/23 09:31:00;;;;;;;3.85;2.63;;;36.50;50.10;;;38.99;25.59;100527.72;5180880;28;20058;-73
2022/06/23 09:33:43;;;;;;;7.30;2.75;;;36.30;50.20;;;38.65;26.16;100527.09;5186103;28;20129;-71
2022/06/23 09:37:01;;;;;;;4.63;2.70;;;36.20;50.60;;;37.84;26.87;100517.69;5195861;28;20042;-73
2022/06/23 09:40:17;;;;;;;3.25;2.70;;;35.80;50.40;;;36.64;28.32;100517.44;5155334;28;20060;-74
2022/06/23 09:43:36;;;;;;;4.15;2.88;;;35.20;51.00;;;35.29;29.72;100503.19;5206165;28;20099;-72
2022/06/23 09:46:47;;;;;;;4.03;2.42;;;34.40;52.00;;;34.58;31.26;100506.47;5190374;28;20042;-73
2022/06/23 09:49:48;;;;;;;3.92;2.55;;;33.70;53.20;;;34.39;32.36;100514.09;5185557;28;20087;-71
2022/06/23 09:52:42;;;;;;;5.65;3.30;;;33.40;54.30;;;34.11;32.44;100507.03;5184227;28;20056;-74
2022/06/23 09:55:46;;;;;;;3.90;2.95;;;33.10;55.20;;;33.85;32.40;100497.94;5185319;28;20080;-72
2022/06/23 09:58:54;;;;;;;5.50;2.83;;;32.90;54.50;;;33.75;33.00;100489.53;5174976;28;20507;-70
2022/06/23 10:01:44;;;;;;;4.72;2.80;;;32.80;55.10;;;33.70;33.28;100497.94;5183722;28;20073;-72
2022/06/23 10:04:49;;;;;;;4.75;3.28;;;32.70;55.50;;;33.44;32.92;100506.91;5185608;28;20045;-72
2022/06/23 10:08:00;;;;;;;6.70;3.28;;;32.50;54.80;;;33.16;33.61;100502.38;5189879;28;20123;-72
2022/06/23 10:10:50;;;;;;;5.63;2.95;;;32.30;55.50;;;32.82;33.56;100499.09;5217051;28;20051;-72
2022/06/23 10:13:49;;;;;;;4.88;3.05;;;32.00;55.20;;;32.74;33.37;100495.16;5222758;28;20517;-73
2022/06/23 10:16:47;;;;;;;3.58;3.05;;;31.90;55.30;;;32.49;34.20;100491.25;5226183;28;20518;-71
2022/06/23 10:19:43;;;;;;;4.85;3.10;;;31.70;55.80;;;32.31;34.50;100490.50;5218949;28;20051;-71
2022/06/23 10:22:37;;;;;;;5.40;2.97;;;31.60;56.20;;;32.39;34.30;100481.97;5194140;28;20049;-71
2022/06/23 10:25:32;;;;;;;4.05;3.10;;;31.50;56.00;;;32.71;34.57;100487.22;5204779;28;20049;-72
2022/06/23 10:28:26;;;;;;;5.30;2.88;;;31.60;56.80;;;32.67;34.42;100484.75;5204970;28;20401;-71
2022/06/23 10:31:12;;;;;;;5.20;3.08;;;31.70;56.30;;;32.68;34.25;100485.59;5195977;28;20046;-71
2022/06/23 10:34:04;;;;;;;5.05;2.92;;;31.70;56.10;;;32.80;34.08;100483.94;5208819;28;20126;-72
2022/06/23 10:37:04;;;;;;;4.50;3.10;;;31.80;56.60;;;32.90;34.29;100471.66;5216905;28;20041;-70
2022/06/23 10:40:19;;;;;;;3.95;3.20;;;31.90;56.40;;;33.13;34.05;100470.19;5209780;28;20055;-71
2022/06/23 10:43:06;;;;;;;5.32;2.95;;;32.00;56.30;;;33.17;33.33;100477.13;5209751;28;20068;-72
2022/06/23 10:45:44;;;;;;;5.32;3.08;;;32.20;55.70;;;33.11;33.92;100488.31;5209446;28;20045;-72
2022/06/23 10:48:52;;;;;;;3.15;2.78;;;32.10;55.80;;;33.05;33.91;100478.75;5209773;28;20049;-73
2022/06/23 10:51:57;;;;;;;8.05;3.00;;;32.10;55.80;;;33.13;33.39;100471.06;5209088;28;20041;-73
2022/06/23 10:55:33;;;;;;;4.10;3.08;;;32.20;55.50;;;32.96;34.04;100463.16;5339612;22;20470;-71
2022/06/23 10:59:07;;;;;;;3.92;2.80;;;32.00;55.90;;;32.99;33.86;100456.69;5236124;28;20569;-73
2022/06/23 11:02:01;;;;;;;4.05;3.00;;;32.00;55.90;;;33.07;34.22;100449.84;5178306;28;20065;-72
2022/06/23 11:05:13;;;;;;;4.50;3.22;;;32.00;56.20;;;33.17;33.82;100456.38;5249189;28;20041;-72
2022/06/23 11:08:05;;;;;;;4.90;3.05;;;32.10;55.90;;;33.37;33.65;100456.91;5250511;28;20424;-71
2022/06/23 11:10:59;;;;;;;8.07;3.35;;;32.20;55.90;;;33.51;33.51;100464.16;5246465;28;20048;-72
2022/06/23 11:13:44;;;;;;;5.50;3.20;;;32.40;55.80;;;33.57;33.29;100453.78;5225736;28;20123;-72
2022/06/23 11:16:27;;;;;;;5.57;3.17;;;32.40;55.70;;;33.47;33.58;100453.56;5229747;28;20037;-70
2022/06/23 11:19:31;;;;;;;5.38;3.08;;;32.40;55.70;;;33.37;33.27;100451.50;5228305;28;20064;-70
2022/06/23 11:22:33;;;;;;;4.45;2.70;;;32.40;55.60;;;33.39;34.41;100457.75;5229819;28;20115;-71
2022/06/23 11:25:21;;;;;;;6.50;3.10;;;32.30;56.40;;;33.52;34.25;100458.66;5229474;28;20076;-72
2022/06/23 11:28:05;;;;;;;3.72;2.95;;;32.40;56.40;;;33.59;33.72;100451.88;5229385;28;20037;-72
2022/06/23 11:30:54;;;;;;;4.95;3.00;;;32.50;56.20;;;33.55;33.92;100444.06;5229523;28;20045;-68